Time;durP1;ratioP1;P1;durP2;ratioP2;P2;SDS_P1;SDS_P2;PMS_P1;PMS_P2;Temp;Humidity;BMP_temperature;BMP_pressure;BME280_temperature;BME280_humidity;BME280_pressure;Samples;Min_cycle;Max_cycle;Signal;HPM_P1;HPM_P2
2022/01/13 00:00:11;;;;;;;;;;;;;;;3.65;100.00;103563.75;5082460;28;20287;-76
2022/01/13 00:02:37;;;;;;;;;;;;;;;3.66;100.00;103558.53;5077372;28;19948;-76
2022/01/13 00:05:03;;;;;;;;;;;;;;;3.66;100.00;103566.34;5088392;28;19959;-76
2022/01/13 00:07:29;;;;;;;;;;;;;;;3.61;100.00;103555.19;5073413;28;19960;-77
2022/01/13 00:09:54;;;;;;;;;;;;;;;3.64;100.00;103549.94;5082665;28;19979;-76
2022/01/13 00:12:23;;;;;;;;;;;;;;;3.64;100.00;103556.88;5086189;28;19920;-77
2022/01/13 00:15:07;;;;;;;;;;;;;;;3.65;100.00;103545.59;5066644;28;19978;-77
2022/01/13 00:17:46;;;;;;;;;;;;;;;3.62;100.00;103543.94;5079995;28;19927;-76
2022/01/13 00:23:38;;;;;;;;;;;;;;;3.65;100.00;103558.56;5089591;28;19923;-77
2022/01/13 00:25:35;;;;;;;;;;;;;;;3.63;100.00;103550.81;5077004;28;19920;-76
2022/01/13 00:28:05;;;;;;;;;;;;;;;3.62;100.00;103558.66;5078985;28;19970;-76
2022/01/13 00:30:31;;;;;;;;;;;;;;;3.61;100.00;103562.13;5071010;28;19942;-77
2022/01/13 00:32:57;;;;;;;;;;;;;;;3.63;100.00;103566.38;5053952;28;20423;-76
2022/01/13 00:35:22;;;;;;;;;;;;;;;3.60;100.00;103571.66;5069599;28;19973;-76
2022/01/13 00:37:48;;;;;;;;;;;;;;;3.65;100.00;103579.34;5080286;28;19927;-76
2022/01/13 00:40:13;;;;;;;;;;;;;;;3.75;100.00;103585.19;5090448;28;19924;-76
2022/01/13 00:42:39;;;;;;;;;;;;;;;3.69;100.00;103589.66;5053741;28;19920;-76
2022/01/13 00:45:05;;;;;;;;;;;;;;;3.64;100.00;103580.25;5078527;28;19970;-76
2022/01/13 00:47:33;;;;;;;;;;;;;;;3.69;100.00;103580.97;5068728;28;20703;-76
2022/01/13 00:49:58;;;;;;;;;;;;;;;3.72;100.00;103583.53;5070564;28;19951;-77
2022/01/13 00:52:25;;;;;;;;;;;;;;;3.82;100.00;103589.38;5080405;28;20067;-76
2022/01/13 00:54:51;;;;;;;;;;;;;;;3.72;100.00;103591.31;5088654;28;20459;-76
2022/01/13 00:57:17;;;;;;;;;;;;;;;3.69;100.00;103592.25;5073131;28;20407;-77
2022/01/13 00:59:42;;;;;;;;;;;;;;;3.68;100.00;103590.53;5081310;28;20117;-75
2022/01/13 01:02:07;;;;;;;;;;;;;;;3.80;100.00;103592.00;5088874;28;19923;-76
2022/01/13 01:04:33;;;;;;;;;;;;;;;3.84;100.00;103585.00;5082520;28;20007;-77
2022/01/13 01:06:58;;;;;;;;;;;;;;;3.85;100.00;103586.72;5076591;28;19920;-76
2022/01/13 01:09:39;;;;;;;;;;;;;;;3.77;100.00;103571.31;5083792;28;19995;-75
2022/01/13 01:12:05;;;;;;;;;;;;;;;3.82;100.00;103569.44;5051762;28;19951;-76
2022/01/13 01:14:33;;;;;;;;;;;;;;;3.85;100.00;103566.78;5078560;28;19924;-77
2022/01/13 01:16:59;;;;;;;;;;;;;;;3.77;100.00;103560.91;5065517;28;19924;-77
2022/01/13 01:19:28;;;;;;;;;;;;;;;3.80;100.00;103554.78;5077509;28;20443;-77
2022/01/13 01:25:00;;;;;;;;;;;;;;;3.79;100.00;103551.34;5082976;28;19988;-77
2022/01/13 01:27:31;;;;;;;;;;;;;;;3.81;100.00;103553.94;5084561;28;20360;-77
2022/01/13 01:30:44;;;;;;;;;;;;;;;3.86;100.00;103544.25;5069555;28;20568;-75
2022/01/13 01:32:43;;;;;;;;;;;;;;;3.77;100.00;103547.06;5066913;28;19919;-76
2022/01/13 01:35:13;;;;;;;;;;;;;;;3.83;100.00;103549.56;5073214;28;20442;-77
2022/01/13 01:37:39;;;;;;;;;;;;;;;3.86;100.00;103545.16;5078276;28;19920;-76
2022/01/13 01:40:05;;;;;;;;;;;;;;;3.88;100.00;103540.78;5080791;28;20336;-76
2022/01/13 01:42:31;;;;;;;;;;;;;;;3.85;100.00;103537.38;5076893;28;19923;-77
2022/01/13 01:44:58;;;;;;;;;;;;;;;3.92;100.00;103538.97;5060001;28;19924;-77
2022/01/13 01:47:25;;;;;;;;;;;;;;;3.88;100.00;103537.28;5057877;28;19971;-76
2022/01/13 01:49:57;;;;;;;;;;;;;;;3.91;100.00;103539.84;5063470;28;19945;-76
2022/01/13 01:52:22;;;;;;;;;;;;;;;3.94;100.00;103534.59;5045277;28;19921;-76
2022/01/13 01:54:49;;;;;;;;;;;;;;;3.92;100.00;103536.38;5058489;28;19962;-77
2022/01/13 01:57:15;;;;;;;;;;;;;;;3.87;100.00;103536.44;5081255;28;20357;-78
2022/01/13 01:59:42;;;;;;;;;;;;;;;3.84;100.00;103539.13;5079481;28;19921;-76
2022/01/13 02:02:11;;;;;;;;;;;;;;;3.79;100.00;103535.78;5092125;28;19927;-77
2022/01/13 02:04:38;;;;;;;;;;;;;;;3.91;100.00;103521.66;5073754;28;19920;-76
2022/01/13 02:07:05;;;;;;;;;;;;;;;3.86;100.00;103524.38;5077633;28;19932;-76
2022/01/13 02:09:34;;;;;;;;;;;;;;;3.93;100.00;103519.03;5064652;28;20003;-75
2022/01/13 02:12:04;;;;;;;;;;;;;;;3.97;100.00;103511.13;5078322;28;20009;-76
2022/01/13 02:14:48;;;;;;;;;;;;;;;3.93;100.00;103519.88;5084371;28;19916;-76
2022/01/13 02:17:22;;;;;;;;;;;;;;;3.92;100.00;103504.31;5084597;28;20451;-75
2022/01/13 02:19:48;;;;;;;;;;;;;;;3.90;100.00;103502.63;5045518;28;19917;-76
2022/01/13 02:22:13;;;;;;;;;;;;;;;3.89;100.00;103490.53;5078849;28;19932;-77
2022/01/13 02:24:39;;;;;;;;;;;;;;;3.82;100.00;103494.16;5062414;28;19921;-76
2022/01/13 02:27:05;;;;;;;;;;;;;;;3.90;100.00;103499.19;5090056;28;19920;-76
2022/01/13 02:29:31;;;;;;;;;;;;;;;3.93;100.00;103500.84;5070397;28;19921;-76
2022/01/13 02:31:57;;;;;;;;;;;;;;;3.94;100.00;103503.41;5087158;28;19920;-75
2022/01/13 02:34:23;;;;;;;;;;;;;;;3.96;100.00;103501.63;5078601;28;19927;-77
2022/01/13 02:36:49;;;;;;;;;;;;;;;3.95;100.00;103497.31;5056923;28;20352;-77
2022/01/13 02:39:15;;;;;;;;;;;;;;;3.90;100.00;103489.66;5089702;28;19924;-76
2022/01/13 02:41:40;;;;;;;;;;;;;;;3.94;100.00;103489.56;5084812;28;19977;-76
2022/01/13 02:44:15;;;;;;;;;;;;;;;3.90;100.00;103486.22;5091185;28;19924;-76
2022/01/13 02:49:08;;;;;;;;;;;;;;;3.87;100.00;103481.06;5068856;28;20344;-76
2022/01/13 02:51:34;;;;;;;;;;;;;;;3.87;100.00;103491.47;5062075;28;19929;-76
2022/01/13 02:54:00;;;;;;;;;;;;;;;3.89;100.00;103487.94;5069472;28;19923;-76
2022/01/13 02:56:26;;;;;;;;;;;;;;;3.85;100.00;103482.84;5089125;28;19924;-76
2022/01/13 02:58:51;;;;;;;;;;;;;;;3.88;100.00;103488.84;5090632;28;19942;-77
2022/01/13 03:01:17;;;;;;;;;;;;;;;3.95;100.00;103483.50;5091035;28;20522;-76
2022/01/13 03:03:44;;;;;;;;;;;;;;;3.96;100.00;103483.47;5089190;28;19921;-77
2022/01/13 03:06:14;;;;;;;;;;;;;;;3.97;100.00;103481.72;5085082;28;19924;-76
2022/01/13 03:08:47;;;;;;;;;;;;;;;3.93;100.00;103487.88;5078722;28;20428;-76
2022/01/13 03:11:14;;;;;;;;;;;;;;;4.03;100.00;103485.03;5069175;28;19943;-75
2022/01/13 03:13:39;;;;;;;;;;;;;;;4.04;100.00;103484.13;5075680;28;19917;-76
2022/01/13 03:16:06;;;;;;;;;;;;;;;4.14;100.00;103483.91;5090310;28;19931;-76
2022/01/13 03:18:31;;;;;;;;;;;;;;;4.15;100.00;103477.81;5083377;28;19960;-76
2022/01/13 03:20:57;;;;;;;;;;;;;;;4.11;100.00;103471.84;5085179;28;20462;-77
2022/01/13 03:23:22;;;;;;;;;;;;;;;4.14;100.00;103471.75;5090565;28;20401;-77
2022/01/13 03:25:48;;;;;;;;;;;;;;;4.14;100.00;103469.16;5086865;28;20003;-77
2022/01/13 03:28:28;;;;;;;;;;;;;;;4.11;100.00;103479.63;5089108;28;19931;-77
2022/01/13 03:30:53;;;;;;;;;;;;;;;4.12;100.00;103472.69;5088182;28;19958;-76
2022/01/13 03:33:19;;;;;;;;;;;;;;;4.15;100.00;103480.41;5081470;28;19963;-77
2022/01/13 03:35:44;;;;;;;;;;;;;;;4.15;100.00;103480.41;5067104;28;20533;-77
2022/01/13 03:38:10;;;;;;;;;;;;;;;4.08;100.00;103482.31;5079507;28;19922;-76
2022/01/13 03:40:36;;;;;;;;;;;;;;;4.12;100.00;103490.88;5077362;28;20033;-77
2022/01/13 03:43:02;;;;;;;;;;;;;;;4.05;100.00;103495.34;5089004;28;19919;-77
2022/01/13 03:45:28;;;;;;;;;;;;;;;4.11;100.00;103505.63;5069956;28;20299;-77
2022/01/13 03:47:54;;;;;;;;;;;;;;;4.10;100.00;103501.28;5073689;28;19986;-77
2022/01/13 03:50:20;;;;;;;;;;;;;;;4.20;100.00;103504.53;5077563;28;20373;-76
2022/01/13 03:52:58;;;;;;;;;;;;;;;4.19;100.00;103492.44;5086582;28;19973;-77
2022/01/13 03:55:39;;;;;;;;;;;;;;;4.16;100.00;103490.75;5079698;28;19920;-76
2022/01/13 03:58:16;;;;;;;;;;;;;;;4.20;100.00;103492.41;5066204;28;20394;-76
2022/01/13 04:00:54;;;;;;;;;;;;;;;4.28;100.00;103480.06;5074204;28;20302;-76
2022/01/13 04:03:19;;;;;;;;;;;;;;;4.23;100.00;103481.06;5063793;28;19972;-75
2022/01/13 04:06:03;;;;;;;;;;;;;;;4.31;100.00;103470.50;5082625;28;20014;-77
2022/01/13 04:08:32;;;;;;;;;;;;;;;4.39;100.00;103459.00;5095879;28;20114;-76
2022/01/13 04:10:57;;;;;;;;;;;;;;;4.30;100.00;103467.03;5079104;28;19942;-77
2022/01/13 04:13:43;;;;;;;;;;;;;;;4.32;100.00;103461.81;5083121;28;20024;-77
2022/01/13 04:16:08;;;;;;;;;;;;;;;4.36;100.00;103453.03;5082429;28;19931;-76
2022/01/13 04:18:33;;;;;;;;;;;;;;;4.37;100.00;103449.53;5081062;28;19924;-76
2022/01/13 04:21:00;;;;;;;;;;;;;;;4.38;100.00;103449.50;5073987;28;19930;-76
2022/01/13 04:23:25;;;;;;;;;;;;;;;4.40;100.00;103449.47;5078940;28;19920;-76
2022/01/13 04:25:51;;;;;;;;;;;;;;;4.36;100.00;103446.09;5064586;28;20487;-77
2022/01/13 04:28:17;;;;;;;;;;;;;;;4.47;100.00;103456.22;5082461;28;20429;-76
2022/01/13 04:30:48;;;;;;;;;;;;;;;4.37;100.00;103460.81;5086401;28;19963;-77
2022/01/13 04:33:14;;;;;;;;;;;;;;;4.38;100.00;103451.25;5080460;28;19925;-77
2022/01/13 04:35:40;;;;;;;;;;;;;;;4.41;100.00;103459.81;5062284;28;20412;-76
2022/01/13 04:38:06;;;;;;;;;;;;;;;4.43;100.00;103447.66;5083748;28;20016;-77
2022/01/13 04:40:32;;;;;;;;;;;;;;;4.41;100.00;103448.59;5066595;28;20018;-77
2022/01/13 04:42:57;;;;;;;;;;;;;;;4.39;100.00;103445.16;5088058;28;19926;-76
2022/01/13 04:45:24;;;;;;;;;;;;;;;4.31;100.00;103437.56;5053498;28;20082;-76
2022/01/13 04:47:52;;;;;;;;;;;;;;;4.36;100.00;103435.69;5073534;28;19977;-77
2022/01/13 04:50:18;;;;;;;;;;;;;;;4.39;100.00;103434.75;5071899;28;20285;-76
2022/01/13 04:52:44;;;;;;;;;;;;;;;4.38;100.00;103433.91;5079375;28;19930;-77
2022/01/13 04:55:12;;;;;;;;;;;;;;;4.38;100.00;103438.25;5089795;28;19924;-75
2022/01/13 04:57:37;;;;;;;;;;;;;;;4.45;100.00;103430.25;5089118;28;19955;-77
2022/01/13 05:00:04;;;;;;;;;;;;;;;4.38;100.00;103427.88;5085450;28;20297;-76
2022/01/13 05:02:29;;;;;;;;;;;;;;;4.39;100.00;103427.81;5084562;28;19927;-76
2022/01/13 05:04:55;;;;;;;;;;;;;;;4.32;100.00;103435.84;5090318;28;19924;-77
2022/01/13 05:07:21;;;;;;;;;;;;;;;4.33;100.00;103432.31;5070191;28;20398;-77
2022/01/13 05:09:46;;;;;;;;;;;;;;;4.42;100.00;103432.94;5082604;28;19916;-76
2022/01/13 05:12:12;;;;;;;;;;;;;;;4.40;100.00;103426.06;5073614;28;20297;-76
2022/01/13 05:14:37;;;;;;;;;;;;;;;4.39;100.00;103422.63;5065854;28;19931;-76
2022/01/13 05:17:12;;;;;;;;;;;;;;;4.40;100.00;103408.72;5079171;28;20009;-76
2022/01/13 05:19:56;;;;;;;;;;;;;;;4.40;100.00;103419.13;5085804;28;20725;-77
2022/01/13 05:22:21;;;;;;;;;;;;;;;4.40;100.00;103421.72;5084753;28;19923;-76
2022/01/13 05:24:48;;;;;;;;;;;;;;;4.43;100.00;103416.47;5087438;28;19920;-76
2022/01/13 05:27:14;;;;;;;;;;;;;;;4.39;100.00;103417.44;5080012;28;20031;-76
2022/01/13 05:29:39;;;;;;;;;;;;;;;4.36;100.00;103412.31;5071420;28;20003;-76
2022/01/13 05:32:05;;;;;;;;;;;;;;;4.41;100.00;103414.81;5078110;28;19922;-76
2022/01/13 05:34:31;;;;;;;;;;;;;;;4.42;100.00;103414.72;5083972;28;20467;-76
2022/01/13 05:36:56;;;;;;;;;;;;;;;4.47;100.00;103420.66;5082368;28;19926;-77
2022/01/13 05:39:22;;;;;;;;;;;;;;;4.39;100.00;103412.25;5069333;28;19920;-76
2022/01/13 05:41:47;;;;;;;;;;;;;;;4.49;100.00;103412.84;5083818;28;19922;-77
2022/01/13 05:44:13;;;;;;;;;;;;;;;4.52;100.00;103414.50;5080806;28;19920;-77
2022/01/13 05:46:38;;;;;;;;;;;;;;;4.50;100.00;103409.31;5092777;28;19920;-77
2022/01/13 05:49:04;;;;;;;;;;;;;;;4.41;100.00;103405.25;5090765;28;19921;-76
2022/01/13 05:51:29;;;;;;;;;;;;;;;4.55;100.00;103409.22;5083304;28;19943;-76
2022/01/13 05:53:54;;;;;;;;;;;;;;;4.57;100.00;103402.22;5071566;28;20011;-76
2022/01/13 05:56:20;;;;;;;;;;;;;;;4.54;100.00;103399.69;5085662;28;19924;-76
2022/01/13 05:58:45;;;;;;;;;;;;;;;4.62;100.00;103395.16;5073558;28;19955;-76
2022/01/13 06:01:11;;;;;;;;;;;;;;;4.51;100.00;103399.81;5065963;28;19917;-76
2022/01/13 06:03:36;;;;;;;;;;;;;;;4.61;100.00;103398.66;5072830;28;20341;-76
2022/01/13 06:06:02;;;;;;;;;;;;;;;4.59;100.00;103408.25;5077091;28;20306;-76
2022/01/13 06:08:27;;;;;;;;;;;;;;;4.62;100.00;103406.41;5080365;28;19938;-77
2022/01/13 06:10:52;;;;;;;;;;;;;;;4.60;100.00;103408.19;5077007;28;19932;-77
2022/01/13 06:13:18;;;;;;;;;;;;;;;4.71;100.00;103409.63;5090333;28;19975;-75
2022/01/13 06:15:43;;;;;;;;;;;;;;;4.62;100.00;103411.59;5088415;28;20011;-77
2022/01/13 06:18:14;;;;;;;;;;;;;;;4.68;100.00;103411.44;5087421;28;19967;-77
2022/01/13 06:20:40;;;;;;;;;;;;;;;4.57;100.00;103413.47;5073978;28;19927;-77
2022/01/13 06:23:07;;;;;;;;;;;;;;;4.60;100.00;103407.34;5078985;28;19920;-76
2022/01/13 06:25:33;;;;;;;;;;;;;;;4.74;100.00;103406.97;5087841;28;19923;-77
2022/01/13 06:27:59;;;;;;;;;;;;;;;4.65;100.00;103411.53;5084272;28;20158;-77
2022/01/13 06:30:24;;;;;;;;;;;;;;;4.67;100.00;103406.25;5096753;28;19973;-77
2022/01/13 06:32:50;;;;;;;;;;;;;;;4.73;100.00;103405.25;5086693;28;20041;-77
2022/01/13 06:35:15;;;;;;;;;;;;;;;4.76;100.00;103416.41;5071160;28;19924;-76
2022/01/13 06:37:41;;;;;;;;;;;;;;;4.75;100.00;103406.06;5059895;28;19916;-78
2022/01/13 06:40:07;;;;;;;;;;;;;;;4.74;100.00;103404.34;5092170;28;19916;-78
2022/01/13 06:42:33;;;;;;;;;;;;;;;4.75;100.00;103404.31;5086018;28;19927;-78
2022/01/13 06:44:59;;;;;;;;;;;;;;;4.74;100.00;103407.81;5090189;28;19920;-76
2022/01/13 06:47:24;;;;;;;;;;;;;;;4.69;100.00;103412.31;5079754;28;19969;-77
2022/01/13 06:49:50;;;;;;;;;;;;;;;4.76;100.00;103408.63;5073959;28;19935;-77
2022/01/13 06:52:17;;;;;;;;;;;;;;;4.70;100.00;103406.19;5087192;28;19927;-78
2022/01/13 06:54:42;;;;;;;;;;;;;;;4.77;100.00;103409.47;5083438;28;20002;-77
2022/01/13 06:57:08;;;;;;;;;;;;;;;4.75;100.00;103406.06;5078447;28;20088;-76
2022/01/13 06:59:34;;;;;;;;;;;;;;;4.87;100.00;103411.75;5064359;28;19924;-76
2022/01/13 07:02:01;;;;;;;;;;;;;;;4.83;100.00;103417.09;5060460;28;19924;-76
2022/01/13 07:04:27;;;;;;;;;;;;;;;4.83;100.00;103412.75;5080852;28;19951;-77
2022/01/13 07:06:53;;;;;;;;;;;;;;;4.82;100.00;103407.59;5087347;28;19920;-77
2022/01/13 07:09:18;;;;;;;;;;;;;;;4.86;100.00;103419.63;5072025;28;20003;-76
2022/01/13 07:11:45;;;;;;;;;;;;;;;4.83;100.00;103419.72;5082197;28;19973;-76
2022/01/13 07:14:10;;;;;;;;;;;;;;;4.87;100.00;103422.16;5056717;28;20358;-76
2022/01/13 07:16:36;;;;;;;;;;;;;;;4.77;100.00;103422.50;5082481;28;19963;-76
2022/01/13 07:19:03;;;;;;;;;;;;;;;4.76;100.00;103425.97;5049746;28;19973;-76
2022/01/13 07:21:29;;;;;;;;;;;;;;;4.89;100.00;103429.94;5063878;28;20638;-76
2022/01/13 07:23:55;;;;;;;;;;;;;;;4.79;100.00;103434.53;5073576;28;19991;-77
2022/01/13 07:26:20;;;;;;;;;;;;;;;4.88;100.00;103434.28;5082464;28;19959;-76
2022/01/13 07:28:46;;;;;;;;;;;;;;;4.80;100.00;103440.59;5072113;28;19920;-76
2022/01/13 07:31:14;;;;;;;;;;;;;;;4.74;100.00;103446.81;5089722;28;19916;-76
2022/01/13 07:33:43;;;;;;;;;;;;;;;4.77;100.00;103448.50;5084525;28;19927;-76
2022/01/13 07:36:08;;;;;;;;;;;;;;;4.81;100.00;103461.34;5084907;28;19920;-76
2022/01/13 07:38:34;;;;;;;;;;;;;;;4.75;100.00;103458.94;5079365;28;20017;-76
2022/01/13 07:41:00;;;;;;;;;;;;;;;4.75;100.00;103461.53;5076545;28;19995;-75
2022/01/13 07:43:26;;;;;;;;;;;;;;;4.69;100.00;103466.91;5073564;28;20267;-78
2022/01/13 07:45:52;;;;;;;;;;;;;;;4.78;100.00;103465.78;5094850;28;19941;-77
2022/01/13 07:48:18;;;;;;;;;;;;;;;4.78;100.00;103464.03;5085237;28;19920;-76
2022/01/13 07:50:43;;;;;;;;;;;;;;;4.82;100.00;103463.06;5091234;28;19924;-76
2022/01/13 07:53:09;;;;;;;;;;;;;;;4.90;100.00;103456.78;5085407;28;19916;-76
2022/01/13 07:55:34;;;;;;;;;;;;;;;4.87;100.00;103461.16;5084098;28;19975;-77
2022/01/13 07:58:00;;;;;;;;;;;;;;;4.89;100.00;103463.75;5073506;28;19920;-77
2022/01/13 08:00:26;;;;;;;;;;;;;;;4.84;100.00;103456.06;5065977;28;20786;-76
2022/01/13 08:02:51;;;;;;;;;;;;;;;4.83;100.00;103453.50;5072966;28;19969;-77
2022/01/13 08:05:17;;;;;;;;;;;;;;;4.90;100.00;103456.78;5092283;28;20011;-76
2022/01/13 08:07:42;;;;;;;;;;;;;;;4.79;100.00;103470.09;5093315;28;19920;-77
2022/01/13 08:10:08;;;;;;;;;;;;;;;4.90;100.00;103470.66;5082206;28;19973;-77
2022/01/13 08:12:34;;;;;;;;;;;;;;;4.92;100.00;103481.88;5084849;28;19932;-76
2022/01/13 08:15:00;;;;;;;;;;;;;;;4.83;100.00;103474.31;5091125;28;19923;-76
2022/01/13 08:20:10;;;;;;;;;;;;;;;4.76;100.00;103475.38;5090332;28;20160;-77
2022/01/13 08:22:36;;;;;;;;;;;;;;;4.78;100.00;103477.03;5072796;28;19923;-75
2022/01/13 08:25:02;;;;;;;;;;;;;;;4.80;100.00;103483.06;5084087;28;19919;-77
2022/01/13 08:27:27;;;;;;;;;;;;;;;4.91;100.00;103489.72;5078634;28;20760;-76
2022/01/13 08:29:53;;;;;;;;;;;;;;;4.82;100.00;103499.47;5046589;28;20019;-78
2022/01/13 08:32:18;;;;;;;;;;;;;;;4.77;100.00;103492.69;5072940;28;20327;-76
2022/01/13 08:34:44;;;;;;;;;;;;;;;4.80;100.00;103484.78;5050910;28;19920;-77
2022/01/13 08:37:10;;;;;;;;;;;;;;;4.75;100.00;103489.28;5083694;28;19947;-76
2022/01/13 08:39:42;;;;;;;;;;;;;;;4.76;100.00;103485.78;5082007;28;19916;-77
2022/01/13 08:42:08;;;;;;;;;;;;;;;4.88;100.00;103478.50;5086948;28;19971;-76
2022/01/13 08:44:33;;;;;;;;;;;;;;;4.87;100.00;103479.38;5086770;28;19963;-77
2022/01/13 08:46:59;;;;;;;;;;;;;;;4.87;100.00;103486.34;5070615;28;20026;-75
2022/01/13 08:49:24;;;;;;;;;;;;;;;4.81;100.00;103481.31;5062479;28;19931;-77
2022/01/13 08:51:51;;;;;;;;;;;;;;;4.81;100.00;103484.75;5086887;28;20355;-76
2022/01/13 08:54:19;;;;;;;;;;;;;;;4.78;100.00;103487.44;5105593;28;19924;-77
2022/01/13 08:56:45;;;;;;;;;;;;;;;4.75;100.00;103482.34;5065214;28;20384;-77
2022/01/13 08:59:11;;;;;;;;;;;;;;;4.66;100.00;103492.97;5086713;28;19986;-77
2022/01/13 09:01:37;;;;;;;;;;;;;;;4.73;100.00;103498.84;5093407;28;19920;-77
2022/01/13 09:04:02;;;;;;;;;;;;;;;4.77;100.00;103497.91;5092110;28;19916;-77
2022/01/13 09:06:27;;;;;;;;;;;;;;;4.71;100.00;103492.84;5086385;28;20383;-77
2022/01/13 09:08:53;;;;;;;;;;;;;;;4.77;100.00;103496.13;5078879;28;19916;-76
2022/01/13 09:11:19;;;;;;;;;;;;;;;4.75;100.00;103491.88;5080559;28;20286;-77
2022/01/13 09:13:44;;;;;;;;;;;;;;;4.82;100.00;103488.19;5089975;28;20421;-76
2022/01/13 09:16:17;;;;;;;;;;;;;;;4.83;100.00;103480.38;5072930;28;19924;-76
2022/01/13 09:21:22;;;;;;;;;;;;;;;4.85;100.00;103480.31;5078848;28;19923;-77
2022/01/13 09:23:47;;;;;;;;;;;;;;;4.76;100.00;103471.03;5051311;28;19940;-77
2022/01/13 09:26:13;;;;;;;;;;;;;;;4.73;100.00;103463.31;5068891;28;19939;-77
2022/01/13 09:28:39;;;;;;;;;;;;;;;4.87;100.00;103465.53;5079179;28;20416;-77
2022/01/13 09:31:05;;;;;;;;;;;;;;;4.87;100.00;103465.53;5065336;28;19983;-78
2022/01/13 09:33:31;;;;;;;;;;;;;;;4.88;100.00;103462.91;5070846;28;20382;-77
2022/01/13 09:35:56;;;;;;;;;;;;;;;4.80;100.00;103466.59;5086817;28;19962;-77
2022/01/13 09:38:22;;;;;;;;;;;;;;;4.83;100.00;103454.34;5088448;28;21060;-77
2022/01/13 09:40:52;;;;;;;;;;;;;;;4.83;100.00;103453.50;5051867;28;19981;-77
2022/01/13 09:43:20;;;;;;;;;;;;;;;4.88;100.00;103457.69;5070383;28;19920;-77
2022/01/13 09:45:46;;;;;;;;;;;;;;;4.85;100.00;103449.13;5074097;28;19920;-77
2022/01/13 09:48:13;;;;;;;;;;;;;;;4.83;100.00;103448.31;5060716;28;20336;-77
2022/01/13 09:50:38;;;;;;;;;;;;;;;4.93;100.00;103448.91;5086585;28;19938;-77
2022/01/13 09:53:04;;;;;;;;;;;;;;;4.89;100.00;103448.13;5090718;28;20413;-76
2022/01/13 09:55:30;;;;;;;;;;;;;;;4.86;100.00;103436.06;5074800;28;19925;-77
2022/01/13 09:58:00;;;;;;;;;;;;;;;4.91;100.00;103437.69;5076342;28;20072;-77
2022/01/13 10:00:26;;;;;;;;;;;;;;;4.95;100.00;103432.34;5051695;28;20072;-77
2022/01/13 10:02:53;;;;;;;;;;;;;;;4.93;100.00;103434.13;5062970;28;19920;-77
2022/01/13 10:05:19;;;;;;;;;;;;;;;4.94;100.00;103430.66;5079384;28;19917;-76
2022/01/13 10:07:46;;;;;;;;;;;;;;;4.96;100.00;103428.03;5081903;28;19925;-77
2022/01/13 10:10:16;;;;;;;;;;;;;;;4.96;100.00;103438.41;5086678;28;20462;-77
2022/01/13 10:12:43;;;;;;;;;;;;;;;4.98;100.00;103436.63;5090219;28;19947;-76
2022/01/13 10:17:46;;;;;;;;;;;;;;;4.93;100.00;103435.91;5076567;28;19927;-77
2022/01/13 10:20:12;;;;;;;;;;;;;;;4.93;100.00;103431.53;5086024;28;19920;-78
2022/01/13 10:22:37;;;;;;;;;;;;;;;4.86;100.00;103436.06;5064563;28;19924;-77
2022/01/13 10:25:03;;;;;;;;;;;;;;;4.87;100.00;103431.72;5049459;28;19927;-76
2022/01/13 10:27:30;;;;;;;;;;;;;;;4.85;100.00;103436.13;5071635;28;19920;-77
2022/01/13 10:30:15;;;;;;;;;;;;;;;4.90;100.00;103430.78;5072428;28;19917;-77
2022/01/13 10:32:41;;;;;;;;;;;;;;;4.83;100.00;103433.56;5099155;28;19954;-76
2022/01/13 10:35:15;;;;;;;;;;;;;;;4.84;100.00;103429.19;5089675;28;19920;-77
2022/01/13 10:37:43;;;;;;;;;;;;;;;4.83;100.00;103432.72;5082043;28;20453;-76
2022/01/13 10:40:14;;;;;;;;;;;;;;;4.79;100.00;103434.53;5067929;28;19926;-77
2022/01/13 10:45:19;;;;;;;;;;;;;;;4.80;100.00;103441.47;5080113;28;20007;-76
2022/01/13 10:47:52;;;;;;;;;;;;;;;4.87;100.00;103429.97;5083956;28;19945;-77
2022/01/13 10:50:17;;;;;;;;;;;;;;;4.87;100.00;103429.97;5075039;28;19924;-77
2022/01/13 10:52:43;;;;;;;;;;;;;;;4.91;100.00;103427.28;5067519;28;19922;-77
2022/01/13 10:55:10;;;;;;;;;;;;;;;4.85;100.00;103425.72;5088188;28;19912;-78
2022/01/13 10:57:36;;;;;;;;;;;;;;;4.87;100.00;103421.31;5076675;28;19933;-77
2022/01/13 11:00:17;;;;;;;;;;;;;;;4.86;100.00;103420.47;5068402;28;19943;-77
2022/01/13 11:02:47;;;;;;;;;;;;;;;4.88;100.00;103417.84;5095115;28;20438;-76
2022/01/13 11:05:12;;;;;;;;;;;;;;;4.92;100.00;103413.41;5083278;28;20678;-76
2022/01/13 11:07:40;;;;;;;;;;;;;;;4.87;100.00;103411.75;5093152;28;19954;-77
2022/01/13 11:10:07;;;;;;;;;;;;;;;4.87;100.00;103405.72;5083860;28;19924;-76
2022/01/13 11:12:36;;;;;;;;;;;;;;;4.83;100.00;103410.16;5097850;28;19920;-76
2022/01/13 11:15:07;;;;;;;;;;;;;;;4.83;100.00;103407.53;5090912;28;19931;-76
2022/01/13 11:17:38;;;;;;;;;;;;;;;4.86;100.00;103402.28;5077297;28;19921;-78
2022/01/13 11:20:05;;;;;;;;;;;;;;;4.81;100.00;103403.28;5086961;28;19923;-76
2022/01/13 11:22:34;;;;;;;;;;;;;;;4.85;100.00;103410.09;5075294;28;19916;-77
2022/01/13 11:25:01;;;;;;;;;;;;;;;4.86;100.00;103399.66;5069594;28;19927;-77
2022/01/13 11:27:27;;;;;;;;;;;;;;;4.86;100.00;103411.81;5089164;28;19977;-78
2022/01/13 11:29:54;;;;;;;;;;;;;;;4.87;100.00;103408.31;5067438;28;20399;-76
2022/01/13 11:32:21;;;;;;;;;;;;;;;4.83;100.00;103406.69;5067058;28;20007;-77
2022/01/13 11:34:47;;;;;;;;;;;;;;;4.89;100.00;103403.91;5086162;28;20077;-76
2022/01/13 11:37:14;;;;;;;;;;;;;;;4.88;100.00;103403.06;5068530;28;19929;-77
2022/01/13 11:39:41;;;;;;;;;;;;;;;4.98;100.00;103401.06;5085907;28;19921;-77
2022/01/13 11:42:08;;;;;;;;;;;;;;;4.92;100.00;103403.84;5064691;28;20381;-77
2022/01/13 11:44:35;;;;;;;;;;;;;;;4.89;100.00;103409.13;5061351;28;19920;-77
2022/01/13 11:47:01;;;;;;;;;;;;;;;4.99;100.00;103405.38;5064116;28;20007;-77
2022/01/13 11:52:12;;;;;;;;;;;;;;;4.96;100.00;103396.81;5090455;28;19920;-76
2022/01/13 11:54:38;;;;;;;;;;;;;;;5.04;100.00;103411.28;5088296;28;20014;-77
2022/01/13 11:57:15;;;;;;;;;;;;;;;4.99;100.00;103405.38;5091126;28;19924;-77
2022/01/13 12:00:00;;;;;;;;;;;;;;;4.98;100.00;103405.41;5087120;28;20446;-76
2022/01/13 12:02:33;;;;;;;;;;;;;;;4.98;100.00;103406.25;5063790;28;19920;-76
2022/01/13 12:05:07;;;;;;;;;;;;;;;4.99;100.00;103396.69;5083951;28;19973;-76
2022/01/13 12:07:33;;;;;;;;;;;;;;;4.96;100.00;103399.41;5101018;27;19920;-77
2022/01/13 12:09:59;;;;;;;;;;;;;;;4.99;100.00;103389.75;5069748;28;19921;-77
2022/01/13 12:12:29;;;;;;;;;;;;;;;4.93;100.00;103389.06;5076211;28;19930;-77
2022/01/13 12:15:12;;;;;;;;;;;;;;;5.04;100.00;103389.63;5067391;28;19921;-76
2022/01/13 12:17:51;;;;;;;;;;;;;;;5.01;100.00;103384.50;5067742;28;20040;-76
2022/01/13 12:20:20;;;;;;;;;;;;;;;5.02;100.00;103378.41;5073383;28;19974;-77
2022/01/13 12:22:55;;;;;;;;;;;;;;;5.04;100.00;103384.41;5089636;28;19927;-77
2022/01/13 12:25:21;;;;;;;;;;;;;;;5.00;100.00;103378.44;5076192;28;19920;-77
2022/01/13 12:27:48;;;;;;;;;;;;;;;4.99;100.00;103376.75;5088415;28;19920;-77
2022/01/13 12:30:13;;;;;;;;;;;;;;;4.95;100.00;103358.66;5083839;28;19927;-76
2022/01/13 12:32:40;;;;;;;;;;;;;;;4.95;100.00;103372.53;5072469;28;19969;-76
2022/01/13 12:35:06;;;;;;;;;;;;;;;4.95;100.00;103375.13;5095958;28;19969;-76
2022/01/13 12:37:32;;;;;;;;;;;;;;;4.94;100.00;103375.19;5071607;28;19924;-76
2022/01/13 12:40:03;;;;;;;;;;;;;;;4.98;100.00;103379.41;5077202;28;20279;-76
2022/01/13 12:42:37;;;;;;;;;;;;;;;4.99;100.00;103376.75;5072721;28;19926;-75
2022/01/13 12:47:48;;;;;;;;;;;;;;;5.02;100.00;103360.19;5091503;28;19942;-76
2022/01/13 12:50:16;;;;;;;;;;;;;;;5.05;100.00;103355.75;5069222;28;19992;-76
2022/01/13 12:52:42;;;;;;;;;;;;;;;5.02;100.00;103365.41;5065538;28;19917;-76
2022/01/13 12:55:08;;;;;;;;;;;;;;;5.09;100.00;103353.06;5058553;28;20301;-75
2022/01/13 12:57:33;;;;;;;;;;;;;;;5.02;100.00;103352.38;5072354;28;19931;-76
2022/01/13 12:59:59;;;;;;;;;;;;;;;4.95;100.00;103354.31;5075622;28;19921;-76